Data for 08/12/2018

Time Sea-Level Adjusted Pressure Absolute Pressure Temperature Relative Humidity Dew Point   
(mb) (inHg) (mb) (inHg) (C) (F) (%) (C) (F)
00:05 1018 30.06 847 25.01 21.6 70.8 29 2.7 36.9
00:10 1018 30.06 847 25.01 21.4 70.5 29 2.7 36.9
00:15 1018 30.06 847 25.01 21.2 70.2 30 3.1 37.6
00:20 1018 30.06 847 25.01 21.1 69.9 30 3.1 37.5
00:25 1018 30.06 847 25.01 21.1 69.9 30 2.9 37.2
00:30 1018 30.06 847 25.01 21.1 70 29 2.4 36.3
00:35 1018 30.06 847 25.01 21.2 70.2 33 4.4 39.9
00:40 1018 30.06 847 25.01 21.1 70 30 2.8 37.1
00:45 1018 30.06 847 25.01 21.4 70.5 28 2.1 35.7
00:50 1018 30.06 847 25.01 21.8 71.2 28 2.4 36.4
00:55 1018 30.06 847 25.01 21.6 71 28 2.3 36.2
01:00 1018 30.06 847 25.01 21.6 70.9 28 2.3 36.1
01:05 1018 30.06 847 25.01 21.7 71 27 2.1 35.8
01:10 1018 30.06 848 25.04 21.8 71.2 27 1.9 35.5
01:15 1018 30.06 848 25.04 22 71.7 26 2.1 35.7
01:20 1018 30.06 847 25.01 22 71.5 27 2.1 35.8
01:25 1018 30.06 847 25.01 22 71.5 32 4.7 40.4
01:30 1018 30.06 847 25.01 21.4 70.5 31 3.9 39.1
01:35 1018 30.06 847 25.01 21.2 70.2 30 3.1 37.6
01:40 1018 30.06 847 25.01 20.3 68.5 37 5.4 41.7
01:45 1018 30.06 847 25.01 18.7 65.7 38 4.4 39.9
01:50 1018 30.06 847 25.01 19.3 66.7 31 1.7 35.1
01:55 1018 30.06 847 25.01 20.4 68.6 32 3.3 37.9
02:00 1018 30.06 847 25.01 20 68 31 2.6 36.7
02:05 1018 30.06 847 25.01 20.2 68.3 31 2.8 37
02:10 1018 30.06 847 25.01 20.2 68.3 29 1.7 35
02:15 1018 30.06 847 25.01 20.8 69.4 28 1.8 35.2
02:20 1018 30.06 847 25.01 20.7 69.3 28 2 35.5
02:25 1018 30.06 847 25.01 20.8 69.4 29 2.3 36.2
02:30 1018 30.06 847 25.01 20.3 68.5 31 2.8 37
02:35 1018 30.06 847 25.01 20.3 68.6 29 1.9 35.4
02:40 1018 30.06 847 25.01 20.7 69.3 29 2.2 36
02:45 1018 30.06 847 25.01 20.3 68.5 30 2.5 36.4
02:50 1018 30.06 847 25.01 20.1 68.2 32 2.9 37.2
02:55 1018 30.06 847 25.01 19.8 67.7 31 2.3 36.2
03:00 1018 30.06 847 25.01 19.7 67.4 32 2.7 36.9
03:05 1018 30.06 847 25.01 19.5 67.2 33 3.1 37.5
03:10 1018 30.06 847 25.01 19.3 66.8 33 2.8 37.1
03:15 1018 30.06 847 25.01 19 66.2 33 2.6 36.6
03:20 1018 30.06 847 25.01 18.9 65.9 33 2.3 36.1
03:25 1018 30.06 847 25.01 19 66.1 33 2.6 36.6
03:30 1018 30.06 847 25.01 18.8 65.8 34 2.6 36.7
03:35 1018 30.06 847 25.01 19 66.2 33 2.4 36.2
03:40 1018 30.06 847 25.01 19.1 66.4 33 2.5 36.5
03:45 1018 30.06 847 25.01 19.1 66.3 32 2.2 36
03:50 1018 30.06 847 25.01 19.2 66.6 32 2.2 36
03:55 1018 30.06 847 25.01 19.4 66.8 31 2 35.6
04:00 1018 30.06 847 25.01 20.1 68.1 28 1 33.7
04:05 1018 30.06 847 25.01 20.6 69.1 29 2 35.7
04:10 1018 30.06 847 25.01 20.3 68.5 29 2 35.6
04:15 1018 30.06 847 25.01 20 68 31 2.4 36.2
04:20 1018 30.06 847 25.01 19.6 67.3 32 2.5 36.5
04:25 1018 30.06 847 25.01 19.4 67 33 3 37.5
04:30 1018 30.06 847 25.01 19.4 66.9 33 2.8 37.1
04:35 1018 30.06 847 25.01 19.2 66.5 35 3.4 38
04:40 1018 30.06 847 25.01 19.1 66.5 31 1.9 35.5
04:45 1018 30.06 847 25.01 19.3 66.7 31 2.1 35.8
04:50 1018 30.06 847 25.01 19.3 66.7 32 2.3 36.2
04:55 1018 30.06 847 25.01 19.1 66.4 32 2 35.6
05:00 1018 30.06 847 25.01 19 66.3 33 2.4 36.3
05:05 1018 30.06 847 25.01 18.9 65.9 32 1.9 35.5
05:10 1018 30.06 847 25.01 19.1 66.4 32 2.3 36.2
05:15 1018 30.06 847 25.01 18.9 65.9 32 2 35.7
05:20 1018 30.06 847 25.01 18.9 66.1 32 1.9 35.4
05:25 1018 30.06 847 25.01 19.2 66.5 31 1.7 35.1
05:30 1018 30.06 847 25.01 19.5 67.1 30 1.6 34.9
05:35 1018 30.06 847 25.01 19.8 67.6 30 1.9 35.5
05:40 1018 30.06 848 25.04 19.7 67.5 31 2.3 36.2
05:45 1018 30.06 848 25.04 19.2 66.5 32 2.3 36.1
05:50 1018 30.06 848 25.04 18.7 65.6 34 2.5 36.4
05:55 1019 30.09 848 25.04 17.9 64.2 38 3.5 38.4
06:00 1019 30.09 848 25.04 17.2 63 39 3.2 37.8
06:05 1019 30.09 848 25.04 17.3 63.1 35 1.9 35.4
06:10 1019 30.09 848 25.04 18 64.4 35 2.4 36.3
06:15 1019 30.09 848 25.04 18.1 64.5 35 2.4 36.3
06:20 1019 30.09 848 25.04 18.6 65.4 33 2.1 35.7
06:25 1019 30.09 848 25.04 18.7 65.7 33 2.1 35.8
06:30 1019 30.09 848 25.04 18.7 65.7 33 2.2 35.9
06:35 1019 30.09 848 25.04 18.9 66 33 2.4 36.4
06:40 1019 30.09 848 25.04 18.7 65.6 33 2.2 35.9
06:45 1019 30.09 848 25.04 18.9 66.1 34 2.7 36.9
06:50 1019 30.09 848 25.04 19.1 66.4 34 2.9 37.3
06:55 1019 30.09 848 25.04 18.9 66.1 38 4.5 40
07:00 1019 30.09 848 25.04 18.5 65.2 42 5.3 41.5
07:05 1019 30.09 848 25.04 18.4 65.1 39 4.3 39.7
07:10 1019 30.09 848 25.04 18.6 65.4 34 2.5 36.6
07:15 1019 30.09 848 25.04 18.9 66 35 3.3 37.9
07:20 1019 30.09 848 25.04 19.2 66.5 35 3.7 38.6
07:25 1019 30.09 848 25.04 19.9 67.8 33 3.3 37.9
07:30 1019 30.09 848 25.04 20.1 68.1 37 4.9 40.9
07:35 1019 30.09 848 25.04 19.9 67.8 35 4.1 39.4
07:40 1019 30.09 848 25.04 20.5 68.9 37 5.4 41.7
07:45 1019 30.09 849 25.07 21 69.8 34 4.9 40.8
07:50 1019 30.09 849 25.07 20.6 69.1 35 4.6 40.3
07:55 1019 30.09 849 25.07 20.4 68.8 36 5.2 41.3
08:00 1019 30.09 849 25.07 20.3 68.5 36 4.8 40.7
08:05 1019 30.09 849 25.07 20.4 68.6 35 4.7 40.5
08:10 1019 30.09 849 25.07 20.7 69.2 34 4.4 39.9
08:15 1019 30.09 849 25.07 21.2 70.2 32 4.2 39.5
08:20 1019 30.09 849 25.07 21.8 71.2 32 4.5 40.1
08:25 1019 30.09 849 25.07 22.2 72 32 5.1 41.2
08:30 1020 30.12 849 25.07 22.4 72.4 32 5.3 41.5
08:35 1020 30.12 849 25.07 22.8 73 31 5.2 41.3
08:40 1020 30.12 849 25.07 23.2 73.8 31 5.6 42
08:45 1020 30.12 849 25.07 23.4 74 32 5.8 42.4
08:50 1020 30.12 849 25.07 23.2 73.8 31 5.4 41.7
08:55 1020 30.12 849 25.07 23.6 74.4 31 5.8 42.5
09:00 1020 30.12 849 25.07 23.7 74.7 31 5.8 42.5
09:05 1020 30.12 849 25.07 23.5 74.4 32 6.1 43
09:10 1020 30.12 849 25.07 23.5 74.3 31 5.6 42.1
09:15 1020 30.12 849 25.07 24 75.2 31 5.9 42.6
09:20 1020 30.12 849 25.07 24.2 75.5 29 5.5 41.8
09:25 1020 30.12 849 25.07 24.6 76.3 28 5 41
09:30 1020 30.12 849 25.07 25.2 77.3 27 5 41.1
09:35 1020 30.12 849 25.07 25.3 77.6 27 5.2 41.4
09:40 1020 30.12 849 25.07 24.9 76.8 27 4.9 40.9
09:45 1020 30.12 849 25.07 24.9 76.8 26 4.3 39.7
09:50 1020 30.12 849 25.07 25.5 77.9 26 4.7 40.5
09:55 1020 30.12 849 25.07 25.7 78.3 25 4.4 39.9
10:00 1020 30.12 849 25.07 26.1 79 24 4.4 39.9
10:05 1020 30.12 849 25.07 26.5 79.8 23 3.8 38.8
10:10 1020 30.12 849 25.07 26.3 79.3 23 3.8 38.9
10:15 1020 30.12 849 25.07 26.1 79 24 4.1 39.3
10:20 1020 30.12 849 25.07 26.7 80.1 23 4.1 39.4
10:25 1020 30.12 849 25.07 26.7 80.1 23 4.2 39.6
10:30 1020 30.12 849 25.07 26.7 80.1 23 4.2 39.6
10:35 1020 30.12 849 25.07 26.8 80.2 22 3.5 38.3
10:40 1020 30.12 849 25.07 27.3 81.2 22 4.1 39.5
10:45 1020 30.12 849 25.07 27.4 81.3 23 4.8 40.6
10:50 1020 30.12 849 25.07 27.5 81.5 23 4.8 40.7
10:55 1020 30.12 849 25.07 27.5 81.4 24 5.5 42
11:00 1020 30.12 849 25.07 27.8 82 23 5 40.9
11:05 1020 30.12 849 25.07 28 82.4 23 5 41.1
11:10 1020 30.12 849 25.07 27.7 81.8 24 5.8 42.4
11:15 1020 30.12 849 25.07 27.9 82.2 24 5.7 42.2
11:20 1020 30.12 849 25.07 28.2 82.8 23 5.4 41.8
11:25 1020 30.12 849 25.07 28.4 83.2 23 5.6 42
11:30 1020 30.12 849 25.07 28.4 83.1 23 5.6 42.1
11:35 1020 30.12 849 25.07 28.3 82.9 23 5.8 42.4
11:40 1019 30.09 849 25.07 27.9 82.2 25 6.1 43
11:45 1019 30.09 849 25.07 28 82.4 25 6.4 43.5
11:50 1019 30.09 849 25.07 27.9 82.2 23 5.4 41.8
11:55 1019 30.09 849 25.07 27.9 82.2 25 6.1 43
12:00 1019 30.09 849 25.07 27.6 81.8 26 6.6 43.8
12:05 1019 30.09 849 25.07 27.7 81.8 26 6.6 43.9
12:10 1019 30.09 849 25.07 27.4 81.3 26 6.4 43.5
12:15 1019 30.09 849 25.07 27.3 81.2 25 6 42.8
12:20 1019 30.09 849 25.07 27.2 81 25 6 42.8
12:25 1019 30.09 849 25.07 27 80.6 26 5.9 42.7
12:30 1019 30.09 849 25.07 27 80.6 25 5.6 42.1
12:35 1019 30.09 849 25.07 26.9 80.4 25 5.4 41.8
12:40 1019 30.09 848 25.04 26.6 80 26 6 42.9
12:45 1019 30.09 848 25.04 26.4 79.5 26 5.6 42.1
12:50 1019 30.09 848 25.04 26.4 79.5 27 5.9 42.6
12:55 1019 30.09 848 25.04 26.3 79.3 27 6 42.8
13:00 1019 30.09 848 25.04 26.2 79.2 27 6 42.8
13:05 1019 30.09 848 25.04 26.2 79.1 27 5.8 42.5
13:10 1019 30.09 848 25.04 26.1 79 28 6.6 43.9
13:15 1019 30.09 848 25.04 26.6 79.8 27 6.3 43.4
13:20 1019 30.09 849 25.07 27 80.6 24 5 40.9
13:25 1019 30.09 849 25.07 27.1 80.9 24 5.4 41.7
13:30 1019 30.09 848 25.04 27.1 80.7 23 4.3 39.7
13:35 1019 30.09 848 25.04 26.7 80 25 5.5 42
13:40 1019 30.09 848 25.04 26.5 79.7 25 5.3 41.6
13:45 1019 30.09 848 25.04 26 78.9 27 6 42.9
13:50 1019 30.09 848 25.04 25.3 77.5 27 5 41
13:55 1019 30.09 848 25.04 25.1 77.2 28 5.8 42.4
14:00 1019 30.09 848 25.04 24.7 76.4 31 6.4 43.6
14:05 1019 30.09 848 25.04 24.1 75.5 32 6.8 44.3
14:10 1019 30.09 848 25.04 24 75.2 31 6 42.8
14:15 1019 30.09 848 25.04 24.6 76.2 29 5.4 41.8
14:20 1018 30.06 848 25.04 25.6 78.2 25 4.1 39.5
14:25 1018 30.06 848 25.04 26.9 80.5 24 4.7 40.5
14:30 1018 30.06 847 25.01 27.7 81.9 25 5.9 42.7
14:35 1018 30.06 847 25.01 27 80.6 26 5.9 42.6
14:40 1018 30.06 847 25.01 27.3 81.2 23 5 40.9
14:45 1018 30.06 847 25.01 28.2 82.7 18 2.2 35.9
14:50 1018 30.06 847 25.01 29.2 84.6 23 6.4 43.6
14:55 1018 30.06 847 25.01 29.5 85.1 20 4.5 40.1
15:00 1018 30.06 847 25.01 29.4 84.8 17 2.1 35.8
15:05 1018 30.06 847 25.01 29.2 84.5 18 2.8 37
15:10 1018 30.06 847 25.01 29 84.1 21 4.7 40.5
15:15 1018 30.06 847 25.01 28.8 83.8 20 3.8 38.9
15:20 1018 30.06 847 25.01 28.6 83.4 22 4.9 40.9
15:25 1018 30.06 847 25.01 28.2 82.8 22 4.9 40.8
15:30 1018 30.06 847 25.01 28 82.5 22 4.9 40.8
15:35 1018 30.06 847 25.01 27.9 82.3 23 5.2 41.4
15:40 1018 30.06 847 25.01 28 82.4 19 2.3 36.2
15:45 1018 30.06 847 25.01 28.1 82.6 18 1.5 34.7
15:50 1018 30.06 847 25.01 27.8 82.1 18 1.6 34.9
15:55 1018 30.06 847 25.01 28 82.4 15 -0.8 30.5
16:00 1018 30.06 847 25.01 28.6 83.5 18 2.2 36
16:05 1018 30.06 847 25.01 28.2 82.7 17 1.3 34.4
16:10 1018 30.06 847 25.01 28.2 82.8 19 2.8 37.1
16:15 1018 30.06 847 25.01 28.2 82.7 18 1.8 35.3
16:20 1018 30.06 847 25.01 28.2 82.7 19 2.4 36.4
16:25 1017 30.03 847 25.01 28.3 83 18 2.3 36.1
16:30 1017 30.03 847 25.01 28.3 83 17 1.3 34.4
16:35 1017 30.03 847 25.01 28.5 83.2 18 1.9 35.4
16:40 1017 30.03 847 25.01 28.5 83.3 18 2.1 35.7
16:45 1018 30.06 847 25.01 28.6 83.4 18 2.6 36.7
16:50 1018 30.06 847 25.01 28.6 83.6 17 1.5 34.8
16:55 1018 30.06 847 25.01 28.9 84 17 1.7 35.1
17:00 1018 30.06 847 25.01 28.8 83.9 17 1.5 34.7
17:05 1018 30.06 847 25.01 28.7 83.6 17 1.8 35.2
17:10 1018 30.06 847 25.01 28.8 83.8 16 1.1 33.9
17:15 1018 30.06 847 25.01 28.8 83.8 17 1.6 34.9
17:20 1017 30.03 847 25.01 28.9 84 17 2 35.5
17:25 1017 30.03 847 25.01 28.7 83.7 17 1.9 35.5
17:30 1017 30.03 847 25.01 28.7 83.6 18 2.1 35.7
17:35 1017 30.03 847 25.01 28.5 83.3 18 2.5 36.6
17:40 1017 30.03 846 24.98 28.6 83.6 17 1.5 34.8
17:45 1017 30.03 846 24.98 29 84.2 17 1.8 35.2
17:50 1017 30.03 846 24.98 29 84.2 18 2.8 37
17:55 1017 30.03 846 24.98 28.9 84.1 19 3.5 38.3
18:00 1017 30.03 846 24.98 28.8 83.8 18 2.5 36.6
18:05 1017 30.03 847 25.01 28.8 83.9 18 2.6 36.8
18:10 1018 30.06 847 25.01 28.7 83.7 18 2.1 35.8
18:15 1018 30.06 847 25.01 28.4 83.2 16 0.1 32.2
18:20 1018 30.06 847 25.01 28.5 83.4 17 1.8 35.2
18:25 1018 30.06 847 25.01 28.2 82.7 18 2.1 35.8
18:30 1018 30.06 847 25.01 28.1 82.6 19 2.4 36.4
18:35 1017 30.03 847 25.01 28 82.4 19 2.3 36.2
18:40 1017 30.03 847 25.01 27.9 82.3 18 1.4 34.4
18:45 1017 30.03 847 25.01 27.9 82.2 18 1.4 34.4
18:50 1017 30.03 846 24.98 27.7 81.9 18 1.9 35.4
18:55 1017 30.03 846 24.98 27.4 81.3 20 2.6 36.7
19:00 1017 30.03 847 25.01 27.1 80.7 20 2.4 36.3
19:05 1017 30.03 847 25.01 26.9 80.3 21 3.2 37.8
19:10 1017 30.03 847 25.01 26.7 80 21 2.8 37.1
19:15 1017 30.03 847 25.01 26.3 79.3 22 2.9 37.3
19:20 1017 30.03 847 25.01 26.1 78.9 22 2.9 37.2
19:25 1018 30.06 847 25.01 25.9 78.5 22 3 37.5
19:30 1018 30.06 847 25.01 25.8 78.4 22 3 37.3
19:35 1018 30.06 847 25.01 25.7 78.2 23 3.2 37.8
19:40 1018 30.06 847 25.01 25.5 77.9 24 3.9 39
19:45 1018 30.06 847 25.01 25.1 77.3 25 3.7 38.7
19:50 1018 30.06 847 25.01 25 76.9 26 4.1 39.4
19:55 1018 30.06 847 25.01 24.9 76.8 25 3.8 38.8
20:00 1018 30.06 847 25.01 24.8 76.7 27 4.7 40.5
20:05 1018 30.06 847 25.01 24.5 76.1 28 5 41.1
20:10 1018 30.06 847 25.01 24.2 75.6 31 6.3 43.3
20:15 1018 30.06 847 25.01 23.9 75 29 4.8 40.7
20:20 1018 30.06 847 25.01 23.5 74.2 30 5.3 41.5
20:25 1018 30.06 847 25.01 23.3 74 32 5.8 42.4
20:30 1018 30.06 848 25.04 23.2 73.8 31 5.4 41.7
20:35 1018 30.06 848 25.04 22.9 73.3 32 5.5 41.8
20:40 1018 30.06 848 25.04 22.7 72.9 32 5.3 41.5
20:45 1019 30.09 848 25.04 22.8 73 32 5.2 41.4
20:50 1019 30.09 848 25.04 22.4 72.3 35 6.3 43.3
20:55 1019 30.09 848 25.04 21.5 70.6 36 6 42.8
21:00 1019 30.09 848 25.04 21.4 70.4 36 6 42.8
21:05 1019 30.09 848 25.04 21.1 70 37 6.1 43
21:10 1019 30.09 848 25.04 20.8 69.5 38 6.1 43
21:15 1019 30.09 848 25.04 20.8 69.4 37 5.6 42.1
21:20 1019 30.09 848 25.04 20.6 69.1 37 5.6 42
21:25 1019 30.09 848 25.04 20.6 69.1 36 5 41
21:30 1019 30.09 848 25.04 20.6 69.1 35 4.7 40.5
21:35 1019 30.09 848 25.04 20.5 68.9 38 5.7 42.3
21:40 1019 30.09 848 25.04 20.3 68.6 37 5.4 41.7
21:45 1019 30.09 849 25.07 20 68.1 40 6.2 43.1
21:50 1019 30.09 849 25.07 19.8 67.7 38 5.2 41.4
21:55 1019 30.09 849 25.07 19.9 67.7 37 4.8 40.7
22:00 1020 30.12 849 25.07 20.1 68.1 36 4.9 40.8
22:05 1020 30.12 849 25.07 20.1 68.1 39 5.8 42.4
22:10 1020 30.12 849 25.07 19.4 66.9 37 4.4 39.9
22:15 1020 30.12 849 25.07 20 68 34 3.6 38.5
22:20 1020 30.12 849 25.07 20.4 68.7 31 2.7 36.9
22:25 1020 30.12 849 25.07 20.8 69.4 30 2.9 37.1
22:30 1020 30.12 849 25.07 21 69.7 28 1.7 35.1
22:35 1020 30.12 849 25.07 21.4 70.4 27 1.9 35.4
22:40 1020 30.12 849 25.07 21.1 70.1 27 1.8 35.3
22:45 1020 30.12 849 25.07 20.9 69.7 28 2 35.7
22:50 1020 30.12 849 25.07 20.8 69.4 27 1.5 34.7
22:55 1020 30.12 849 25.07 21 69.7 26 1.1 33.9
23:00 1020 30.12 849 25.07 20.9 69.6 27 1.3 34.3
23:05 1020 30.12 849 25.07 20.5 69 27 1.2 34.2
23:10 1020 30.12 849 25.07 20.3 68.5 28 1.2 34.1
23:15 1020 30.12 849 25.07 20.1 68.1 28 1.2 34.2
23:20 1020 30.12 849 25.07 19.8 67.6 29 1.3 34.3
23:25 1020 30.12 849 25.07 19.6 67.2 29 1.4 34.6
23:30 1020 30.12 850 25.1 19.6 67.2 28 0.7 33.3
23:35 1021 30.15 850 25.1 19.7 67.5 28 0.6 33.1
23:40 1021 30.15 850 25.1 19.8 67.7 27 0.6 33.1
23:45 1021 30.15 850 25.1 19.8 67.6 27 0.5 33
23:50 1021 30.15 850 25.1 19.7 67.4 27 0.4 32.7
23:55 1021 30.15 850 25.1 19.6 67.3 27 0.4 32.6
24:00 1021 30.15 850 25.1 19.7 67.4 27 0.4 32.7